Time;durP1;ratioP1;P1;durP2;ratioP2;P2;SDS_P1;SDS_P2;PMS_P1;PMS_P2;Temp;Humidity;BMP_temperature;BMP_pressure;BME280_temperature;BME280_humidity;BME280_pressure;Samples;Min_cycle;Max_cycle;Signal;HPM_P1;HPM_P2
2024/02/29 00:00:18;;;;;;;16.40;8.07;;;11.60;80.30;;;;;;4986793;28;112635;-49
2024/02/29 00:02:43;;;;;;;13.35;7.40;;;11.50;80.50;;;;;;4985750;28;114434;-49
2024/02/29 00:05:11;;;;;;;19.58;7.65;;;11.50;80.60;;;;;;4985656;28;113914;-50
2024/02/29 00:07:40;;;;;;;14.27;6.93;;;11.60;80.40;;;;;;4986329;28;112774;-50
2024/02/29 00:10:07;;;;;;;17.25;7.30;;;11.70;80.20;;;;;;4986935;28;112730;-49
2024/02/29 00:12:32;;;;;;;14.25;6.22;;;11.80;80.10;;;;;;4985558;28;114549;-52
2024/02/29 00:14:59;;;;;;;15.57;6.75;;;11.90;79.90;;;;;;4985709;28;112912;-48
2024/02/29 00:17:24;;;;;;;21.05;7.40;;;11.90;79.50;;;;;;4985948;28;112519;-53
2024/02/29 00:19:50;;;;;;;11.80;5.72;;;11.90;79.10;;;;;;4986756;28;112689;-49
2024/02/29 00:22:16;;;;;;;16.52;6.68;;;12.00;79.20;;;;;;4985775;28;113726;-49
2024/02/29 00:24:41;;;;;;;13.57;6.40;;;12.10;79.30;;;;;;4983765;28;113998;-49
2024/02/29 00:27:07;;;;;;;14.45;7.80;;;12.10;79.60;;;;;;4985985;28;112900;-49
2024/02/29 00:29:34;;;;;;;15.77;7.53;;;12.10;79.80;;;;;;4986767;28;113171;-53
2024/02/29 00:32:03;;;;;;;16.17;8.80;;;12.10;80.00;;;;;;4998066;28;114775;-51
2024/02/29 00:34:29;;;;;;;16.30;7.95;;;12.10;80.20;;;;;;5005299;28;113910;-49
2024/02/29 00:36:57;;;;;;;17.65;7.50;;;12.00;80.40;;;;;;5006390;28;112525;-49
2024/02/29 00:39:23;;;;;;;17.33;7.93;;;12.00;80.70;;;;;;5001805;28;113007;-49
2024/02/29 00:41:49;;;;;;;17.48;7.15;;;12.10;80.80;;;;;;5005702;28;113877;-50
2024/02/29 00:44:14;;;;;;;19.38;7.25;;;12.00;80.90;;;;;;5005453;28;112788;-49
2024/02/29 00:46:40;;;;;;;16.95;7.40;;;12.00;81.10;;;;;;5006298;28;112532;-51
2024/02/29 00:49:06;;;;;;;13.75;6.97;;;12.10;81.30;;;;;;5006629;28;112853;-53
2024/02/29 00:51:32;;;;;;;10.68;7.18;;;12.00;82.10;;;;;;5004756;28;113164;-50
2024/02/29 00:53:58;;;;;;;15.45;6.97;;;11.90;82.60;;;;;;5005385;28;113213;-50
2024/02/29 00:56:25;;;;;;;18.23;7.68;;;12.00;82.30;;;;;;5006085;28;112659;-49
2024/02/29 00:58:51;;;;;;;12.88;6.68;;;12.10;82.30;;;;;;5006234;28;112685;-48
2024/02/29 01:01:17;;;;;;;18.88;7.00;;;12.00;82.20;;;;;;5004718;28;115726;-49
2024/02/29 01:03:43;;;;;;;18.73;7.43;;;12.10;82.00;;;;;;5004953;28;113997;-51
2024/02/29 01:06:09;;;;;;;17.05;6.88;;;12.10;82.20;;;;;;5006445;28;112631;-52
2024/02/29 01:08:35;;;;;;;15.20;7.20;;;12.00;82.00;;;;;;5005703;28;112858;-48
2024/02/29 01:11:03;;;;;;;17.52;7.32;;;12.10;82.00;;;;;;5004897;28;115005;-50
2024/02/29 01:13:32;;;;;;;14.00;7.00;;;12.00;82.10;;;;;;5004765;28;112896;-53
2024/02/29 01:15:57;;;;;;;13.18;7.15;;;12.00;82.10;;;;;;5004402;28;112878;-50
2024/02/29 01:18:23;;;;;;;12.02;6.63;;;12.00;81.80;;;;;;5006149;28;112850;-50
2024/02/29 01:20:49;;;;;;;15.10;6.13;;;11.90;81.80;;;;;;5005102;28;113259;-51
2024/02/29 01:23:15;;;;;;;13.90;6.75;;;11.90;81.80;;;;;;5004639;28;113714;-49
2024/02/29 01:25:40;;;;;;;13.35;6.20;;;11.80;81.80;;;;;;5005694;28;112839;-49
2024/02/29 01:28:06;;;;;;;15.88;6.55;;;11.90;81.70;;;;;;5007074;28;112763;-52
2024/02/29 01:30:32;;;;;;;13.63;5.68;;;11.90;81.50;;;;;;4993900;28;114402;-49
2024/02/29 01:32:57;;;;;;;13.60;5.85;;;11.80;81.50;;;;;;5008504;28;112789;-49
2024/02/29 01:35:23;;;;;;;14.57;6.07;;;11.80;81.40;;;;;;5009237;28;112550;-50
2024/02/29 01:37:49;;;;;;;13.57;5.97;;;11.80;81.50;;;;;;5009030;28;112734;-50
2024/02/29 01:40:18;;;;;;;13.20;6.38;;;11.90;81.20;;;;;;5008234;28;113264;-49
2024/02/29 01:42:43;;;;;;;10.88;5.63;;;11.90;81.30;;;;;;5007894;28;113941;-51
2024/02/29 01:45:11;;;;;;;14.38;6.20;;;11.80;81.10;;;;;;5009089;28;112889;-48
2024/02/29 01:47:37;;;;;;;13.68;6.20;;;11.90;81.30;;;;;;5009203;28;112783;-49
2024/02/29 01:50:07;;;;;;;14.52;5.70;;;11.80;81.30;;;;;;5006315;28;114900;-50
2024/02/29 01:52:36;;;;;;;12.52;5.72;;;11.80;81.40;;;;;;5007700;28;113735;-49
2024/02/29 01:55:05;;;;;;;12.82;5.60;;;11.80;81.20;;;;;;5008710;28;112492;-49
2024/02/29 01:57:31;;;;;;;13.98;5.45;;;11.90;81.20;;;;;;5008919;28;112682;-49
2024/02/29 01:59:57;;;;;;;14.82;4.97;;;11.90;80.80;;;;;;5007693;28;113473;-49
2024/02/29 02:02:23;;;;;;;12.10;4.85;;;11.90;80.80;;;;;;5000237;28;112692;-50
2024/02/29 02:04:49;;;;;;;8.88;4.10;;;11.80;80.70;;;;;;4988565;28;112678;-50
2024/02/29 02:07:15;;;;;;;14.27;4.63;;;11.80;80.40;;;;;;4988795;28;112860;-49
2024/02/29 02:09:42;;;;;;;18.75;4.43;;;11.90;80.40;;;;;;4987439;28;114404;-50
2024/02/29 02:12:11;;;;;;;12.20;4.40;;;11.90;80.30;;;;;;4987414;28;114058;-49
2024/02/29 02:14:39;;;;;;;12.75;4.40;;;11.90;80.30;;;;;;4986931;28;113028;-51
2024/02/29 02:17:09;;;;;;;10.95;3.90;;;11.90;80.10;;;;;;4988444;28;112678;-52
2024/02/29 02:19:36;;;;;;;13.10;5.28;;;11.90;80.10;;;;;;4987678;28;113480;-54
2024/02/29 02:22:04;;;;;;;16.20;4.60;;;11.90;80.20;;;;;;4987422;28;112727;-51
2024/02/29 02:24:34;;;;;;;12.88;4.13;;;11.90;80.30;;;;;;4988233;28;112770;-49
2024/02/29 02:27:00;;;;;;;16.70;4.28;;;11.80;80.30;;;;;;4988517;28;112600;-49
2024/02/29 02:29:25;;;;;;;12.80;3.83;;;11.80;80.20;;;;;;4987152;28;113201;-50
2024/02/29 02:31:53;;;;;;;13.23;4.55;;;11.80;80.10;;;;;;4998626;28;113706;-54
2024/02/29 02:34:20;;;;;;;15.52;4.47;;;11.90;79.90;;;;;;5008072;28;112911;-49
2024/02/29 02:36:46;;;;;;;10.15;4.28;;;11.90;79.90;;;;;;5008317;28;112703;-51
2024/02/29 02:39:11;;;;;;;11.57;4.25;;;11.90;79.90;;;;;;5006642;28;113136;-53
2024/02/29 02:41:37;;;;;;;11.40;3.90;;;11.90;80.00;;;;;;5006878;28;114139;-50
2024/02/29 02:44:03;;;;;;;14.07;3.63;;;11.80;80.00;;;;;;5008399;28;112688;-51
2024/02/29 02:46:28;;;;;;;12.75;3.55;;;11.80;79.80;;;;;;5006494;28;112856;-49
2024/02/29 02:48:54;;;;;;;11.75;4.03;;;11.80;79.80;;;;;;5007640;28;113923;-54
2024/02/29 02:51:26;;;;;;;12.30;3.75;;;11.80;79.70;;;;;;5004795;28;114292;-50
2024/02/29 02:53:52;;;;;;;15.82;4.03;;;11.80;79.70;;;;;;5007627;28;112952;-50
2024/02/29 02:56:17;;;;;;;9.23;3.42;;;11.80;79.70;;;;;;5007901;28;114932;-49
2024/02/29 02:58:43;;;;;;;13.43;3.38;;;11.80;79.80;;;;;;5006846;28;114618;-53
2024/02/29 03:01:08;;;;;;;13.27;4.20;;;11.80;80.00;;;;;;5006557;28;114829;-49
2024/02/29 03:03:34;;;;;;;14.25;4.20;;;11.70;80.10;;;;;;5007802;28;113195;-53
2024/02/29 03:06:00;;;;;;;16.13;4.13;;;11.70;80.00;;;;;;5008128;28;112644;-53
2024/02/29 03:08:25;;;;;;;14.00;3.92;;;11.60;80.20;;;;;;5000958;28;114566;-52
2024/02/29 03:10:51;;;;;;;21.15;5.00;;;11.60;79.90;;;;;;5003416;28;112980;-49
2024/02/29 03:13:17;;;;;;;14.27;3.92;;;11.60;80.00;;;;;;5003778;28;112887;-49
2024/02/29 03:15:42;;;;;;;13.93;5.43;;;11.60;79.90;;;;;;4996703;28;112753;-49
2024/02/29 03:18:08;;;;;;;15.63;5.30;;;11.50;79.90;;;;;;4996165;28;113860;-49
2024/02/29 03:20:34;;;;;;;16.95;4.50;;;11.40;80.30;;;;;;4992487;28;112982;-51
2024/02/29 03:22:59;;;;;;;10.90;3.78;;;11.40;80.20;;;;;;5007434;28;112874;-49
2024/02/29 03:25:25;;;;;;;11.25;4.18;;;11.50;80.20;;;;;;5007795;28;113072;-49
2024/02/29 03:27:51;;;;;;;15.52;3.83;;;11.50;80.00;;;;;;5001090;28;113299;-51
2024/02/29 03:30:17;;;;;;;13.60;3.65;;;11.50;79.60;;;;;;4997402;28;113070;-48
2024/02/29 03:32:43;;;;;;;11.77;3.03;;;11.50;79.50;;;;;;5007532;28;112584;-49
2024/02/29 03:35:10;;;;;;;11.52;3.47;;;11.50;79.00;;;;;;5007480;28;112738;-49
2024/02/29 03:37:35;;;;;;;15.52;4.15;;;11.50;78.40;;;;;;5006151;28;113127;-51
2024/02/29 03:40:01;;;;;;;11.35;3.67;;;11.60;78.50;;;;;;5006082;28;113149;-49
2024/02/29 03:42:27;;;;;;;18.02;4.45;;;11.50;78.70;;;;;;5007102;28;112966;-49
2024/02/29 03:44:53;;;;;;;12.45;3.17;;;11.50;79.00;;;;;;5002061;28;112943;-52
2024/02/29 03:47:18;;;;;;;10.25;2.97;;;11.50;78.80;;;;;;4997458;28;114165;-53
2024/02/29 03:49:44;;;;;;;14.13;3.20;;;11.50;78.20;;;;;;5005608;28;113702;-53
2024/02/29 03:52:10;;;;;;;11.10;2.80;;;11.50;78.00;;;;;;5006238;28;112764;-49
2024/02/29 03:54:36;;;;;;;15.32;3.45;;;11.50;77.90;;;;;;5007189;28;112749;-49
2024/02/29 03:57:02;;;;;;;12.13;3.38;;;11.50;77.50;;;;;;5006396;28;113139;-53
2024/02/29 03:59:28;;;;;;;12.82;2.78;;;11.60;77.10;;;;;;5005767;28;113176;-49
2024/02/29 04:01:55;;;;;;;13.00;3.45;;;11.70;76.70;;;;;;5006819;28;112765;-50
2024/02/29 04:04:21;;;;;;;13.48;2.92;;;11.80;76.20;;;;;;5006948;28;113303;-50
2024/02/29 04:06:47;;;;;;;12.38;2.80;;;11.80;75.80;;;;;;5004136;28;116150;-50
2024/02/29 04:09:13;;;;;;;12.63;3.33;;;11.90;75.40;;;;;;5005993;28;112666;-49
2024/02/29 04:11:39;;;;;;;11.50;2.78;;;12.00;75.30;;;;;;5006524;28;112612;-49
2024/02/29 04:14:05;;;;;;;11.93;3.25;;;11.90;75.30;;;;;;5006914;28;112804;-49
2024/02/29 04:16:40;;;;;;;9.63;2.40;;;12.00;75.60;;;;;;5005775;28;113237;-49
2024/02/29 04:19:05;;;;;;;13.63;2.60;;;11.90;75.80;;;;;;5000640;28;113347;-49
2024/02/29 04:21:34;;;;;;;9.68;2.50;;;11.90;76.10;;;;;;4998117;28;112829;-48
2024/02/29 04:24:01;;;;;;;11.65;3.05;;;11.90;75.80;;;;;;5006818;28;112754;-48
2024/02/29 04:26:27;;;;;;;11.73;2.65;;;11.90;75.80;;;;;;5005429;28;113289;-49
2024/02/29 04:28:53;;;;;;;14.07;4.75;;;11.90;75.50;;;;;;5005178;28;113828;-50
2024/02/29 04:31:19;;;;;;;14.85;3.05;;;12.00;75.30;;;;;;5006553;28;112597;-49
2024/02/29 04:33:45;;;;;;;13.63;3.00;;;12.00;75.30;;;;;;5006458;28;113063;-51
2024/02/29 04:36:11;;;;;;;15.48;2.72;;;12.00;75.40;;;;;;5005560;28;113728;-50
2024/02/29 04:38:36;;;;;;;20.20;2.55;;;12.00;75.60;;;;;;5005545;28;113018;-49
2024/02/29 04:41:02;;;;;;;18.25;3.30;;;11.90;75.90;;;;;;5005792;28;112706;-49
2024/02/29 04:43:28;;;;;;;16.10;2.90;;;11.90;75.90;;;;;;5005224;28;112975;-49
2024/02/29 04:45:55;;;;;;;17.58;2.83;;;11.90;75.80;;;;;;5005508;28;113166;-49
2024/02/29 04:48:21;;;;;;;14.18;3.08;;;11.90;75.70;;;;;;5005677;28;113820;-49
2024/02/29 04:50:46;;;;;;;14.85;2.72;;;12.00;75.60;;;;;;5005423;28;112773;-51
2024/02/29 04:53:13;;;;;;;14.15;2.67;;;12.00;75.40;;;;;;5006172;28;112760;-49
2024/02/29 04:55:39;;;;;;;11.20;3.08;;;12.00;75.30;;;;;;5005182;28;113366;-51
2024/02/29 04:58:05;;;;;;;10.90;3.00;;;12.10;74.90;;;;;;5005257;28;112901;-51
2024/02/29 05:00:31;;;;;;;10.10;3.45;;;12.10;75.00;;;;;;5006181;28;112812;-49
2024/02/29 05:02:56;;;;;;;16.30;3.88;;;12.10;74.80;;;;;;5008390;28;114987;-49
2024/02/29 05:05:22;;;;;;;13.73;2.88;;;12.20;74.60;;;;;;5008473;28;114371;-49
2024/02/29 05:07:48;;;;;;;13.95;3.15;;;12.20;74.50;;;;;;5008571;28;112697;-50
2024/02/29 05:10:13;;;;;;;15.38;3.38;;;12.20;74.60;;;;;;5009944;28;112864;-51
2024/02/29 05:12:39;;;;;;;12.80;2.78;;;12.20;74.90;;;;;;5008274;28;112821;-50
2024/02/29 05:15:05;;;;;;;15.65;3.33;;;12.10;74.60;;;;;;5008419;28;113281;-49
2024/02/29 05:17:31;;;;;;;16.20;3.30;;;12.30;74.70;;;;;;5001514;28;114412;-52
2024/02/29 05:19:58;;;;;;;16.77;3.13;;;12.30;74.60;;;;;;5001653;28;112580;-50
2024/02/29 05:22:24;;;;;;;13.15;3.17;;;12.40;74.10;;;;;;5009511;28;112718;-49
2024/02/29 05:24:50;;;;;;;13.95;3.35;;;12.30;74.70;;;;;;5008232;28;113141;-50
2024/02/29 05:27:15;;;;;;;21.33;3.47;;;12.30;75.50;;;;;;5008313;28;112924;-49
2024/02/29 05:29:41;;;;;;;13.43;3.28;;;12.30;76.00;;;;;;5009210;28;112695;-49
2024/02/29 05:32:07;;;;;;;16.52;3.22;;;12.20;76.30;;;;;;5009103;28;113071;-53
2024/02/29 05:34:33;;;;;;;20.25;3.50;;;12.20;76.80;;;;;;5008480;28;113353;-50
2024/02/29 05:36:59;;;;;;;17.92;3.85;;;12.20;76.90;;;;;;5008355;28;112991;-52
2024/02/29 05:39:24;;;;;;;15.20;3.00;;;12.20;76.80;;;;;;5008890;28;112798;-49
2024/02/29 05:41:50;;;;;;;20.00;3.50;;;12.20;76.90;;;;;;5009194;28;113243;-49
2024/02/29 05:44:16;;;;;;;17.48;3.03;;;12.20;76.00;;;;;;5007671;28;114337;-50
2024/02/29 05:46:43;;;;;;;11.85;3.33;;;12.20;75.90;;;;;;5008035;28;112624;-49
2024/02/29 05:49:08;;;;;;;10.45;3.60;;;12.10;76.50;;;;;;5009332;28;112683;-51
2024/02/29 05:51:34;;;;;;;16.50;3.47;;;12.10;77.10;;;;;;5008979;28;112671;-49
2024/02/29 05:54:00;;;;;;;20.35;3.72;;;12.10;77.10;;;;;;5007875;28;113161;-49
2024/02/29 05:56:26;;;;;;;21.02;3.83;;;12.10;77.20;;;;;;5007968;28;113185;-51
2024/02/29 05:58:52;;;;;;;14.95;3.95;;;12.10;76.80;;;;;;5008886;28;112615;-49
2024/02/29 06:01:18;;;;;;;15.45;3.47;;;12.10;77.50;;;;;;5008559;28;112737;-51
2024/02/29 06:03:44;;;;;;;14.63;3.47;;;12.10;77.40;;;;;;5007866;28;113243;-53
2024/02/29 06:06:10;;;;;;;20.52;4.47;;;12.10;77.80;;;;;;5006618;28;112673;-50
2024/02/29 06:08:36;;;;;;;15.65;3.67;;;12.10;78.30;;;;;;4995105;28;112898;-49
2024/02/29 06:11:02;;;;;;;19.67;6.30;;;12.00;79.10;;;;;;5008561;28;114398;-50
2024/02/29 06:13:28;;;;;;;20.23;5.65;;;12.00;79.50;;;;;;5006490;28;114886;-49
2024/02/29 06:15:55;;;;;;;16.25;6.00;;;11.90;79.90;;;;;;5007592;28;112636;-48
2024/02/29 06:18:21;;;;;;;20.13;5.78;;;11.90;80.10;;;;;;4994957;28;112907;-49
2024/02/29 06:20:47;;;;;;;14.57;4.68;;;11.90;80.20;;;;;;5007681;28;113171;-49
2024/02/29 06:23:12;;;;;;;14.65;3.75;;;11.90;79.90;;;;;;5007241;28;113268;-49
2024/02/29 06:25:38;;;;;;;13.60;3.15;;;11.90;79.10;;;;;;5007392;28;112589;-49
2024/02/29 06:28:04;;;;;;;19.02;3.67;;;12.00;77.50;;;;;;5008119;28;112675;-51
2024/02/29 06:30:32;;;;;;;19.02;3.60;;;12.10;77.60;;;;;;5008233;28;112775;-49
2024/02/29 06:33:01;;;;;;;21.17;3.50;;;12.20;77.20;;;;;;5007211;28;113357;-48
2024/02/29 06:35:27;;;;;;;15.07;3.38;;;12.20;77.80;;;;;;5006927;28;113972;-50
2024/02/29 06:37:53;;;;;;;17.48;4.50;;;12.20;78.20;;;;;;5008172;28;113376;-48
2024/02/29 06:40:21;;;;;;;26.40;4.22;;;12.20;78.10;;;;;;5008477;28;112675;-49
2024/02/29 06:42:50;;;;;;;16.50;4.05;;;12.20;78.60;;;;;;5006879;28;113224;-49
2024/02/29 06:45:16;;;;;;;16.23;4.45;;;12.20;78.50;;;;;;5007229;28;113164;-50
2024/02/29 06:47:42;;;;;;;16.90;4.53;;;12.20;79.40;;;;;;5008437;28;112769;-49
2024/02/29 06:50:10;;;;;;;11.35;4.35;;;12.20;79.40;;;;;;5006508;28;113160;-52
2024/02/29 06:52:36;;;;;;;19.23;4.07;;;12.20;79.00;;;;;;4990996;28;114376;-48
2024/02/29 06:55:09;;;;;;;17.27;3.88;;;12.30;78.90;;;;;;4986662;28;112837;-49
2024/02/29 06:57:36;;;;;;;26.02;4.45;;;12.30;78.60;;;;;;4996121;28;112917;-50
2024/02/29 07:00:02;;;;;;;14.15;3.72;;;12.40;78.90;;;;;;4993305;28;113172;-49
2024/02/29 07:02:31;;;;;;;13.65;3.67;;;12.40;78.70;;;;;;4998334;28;114837;-49
2024/02/29 07:04:57;;;;;;;17.25;4.57;;;12.50;78.40;;;;;;4995181;28;113169;-54
2024/02/29 07:07:24;;;;;;;15.30;3.28;;;12.60;78.30;;;;;;5002179;28;112794;-51
2024/02/29 07:09:50;;;;;;;13.82;3.75;;;12.80;78.10;;;;;;5000546;28;113260;-51
2024/02/29 07:12:16;;;;;;;15.73;4.03;;;12.90;78.00;;;;;;5004553;28;113250;-52
2024/02/29 07:14:42;;;;;;;14.65;4.30;;;12.90;77.70;;;;;;5004017;28;114134;-49
2024/02/29 07:17:07;;;;;;;12.50;3.65;;;12.90;77.10;;;;;;4999879;28;112665;-53
2024/02/29 07:19:33;;;;;;;16.52;3.92;;;13.00;77.30;;;;;;4988294;28;112786;-50
2024/02/29 07:21:59;;;;;;;26.50;7.35;;;13.10;77.50;;;;;;4994868;28;113335;-51
2024/02/29 07:24:25;;;;;;;21.70;7.15;;;13.20;77.10;;;;;;4995834;28;112735;-50
2024/02/29 07:26:53;;;;;;;13.20;4.57;;;13.20;76.50;;;;;;5004884;28;112758;-52
2024/02/29 07:29:19;;;;;;;13.25;4.60;;;13.20;75.60;;;;;;5004450;28;112821;-49
2024/02/29 07:31:45;;;;;;;14.68;3.55;;;13.20;75.80;;;;;;5000633;28;113194;-49
2024/02/29 07:34:15;;;;;;;12.20;4.30;;;13.10;75.50;;;;;;4999887;28;112794;-49
2024/02/29 07:36:41;;;;;;;18.55;4.20;;;13.20;75.70;;;;;;4987226;28;112892;-50
2024/02/29 07:39:07;;;;;;;12.82;4.15;;;13.20;75.40;;;;;;4987252;28;112805;-54
2024/02/29 07:41:33;;;;;;;18.10;4.88;;;13.10;75.60;;;;;;4976082;28;113196;-50
2024/02/29 07:43:59;;;;;;;20.08;4.53;;;13.10;75.70;;;;;;4985611;28;112885;-54
2024/02/29 07:46:24;;;;;;;16.05;3.78;;;13.20;75.80;;;;;;4986690;28;113128;-50
2024/02/29 07:48:50;;;;;;;13.95;4.53;;;13.30;75.90;;;;;;4987574;28;112767;-49
2024/02/29 07:51:19;;;;;;;15.32;4.95;;;13.30;75.70;;;;;;4997490;28;113737;-49
2024/02/29 07:53:47;;;;;;;13.82;4.15;;;13.40;75.40;;;;;;4986170;28;113145;-50
2024/02/29 07:56:13;;;;;;;18.48;4.22;;;13.40;75.20;;;;;;4990114;28;113006;-50
2024/02/29 07:58:39;;;;;;;20.02;4.68;;;13.40;74.70;;;;;;4991172;28;112846;-50
2024/02/29 08:01:05;;;;;;;15.38;4.38;;;13.40;74.90;;;;;;4989127;28;114163;-51
2024/02/29 08:03:32;;;;;;;14.63;4.47;;;13.30;74.70;;;;;;4985761;28;112931;-49
2024/02/29 08:05:58;;;;;;;15.07;4.03;;;13.30;75.10;;;;;;4990794;28;112857;-49
2024/02/29 08:08:23;;;;;;;18.35;4.95;;;13.30;75.30;;;;;;4990949;28;113022;-51
2024/02/29 08:10:49;;;;;;;12.25;3.95;;;13.20;75.60;;;;;;4988654;28;113753;-49
2024/02/29 08:13:15;;;;;;;13.63;4.13;;;13.30;74.90;;;;;;4987865;28;112968;-51
2024/02/29 08:15:40;;;;;;;20.65;4.72;;;13.40;74.90;;;;;;4986427;28;112550;-51
2024/02/29 08:18:07;;;;;;;21.20;4.10;;;13.40;74.90;;;;;;4986886;28;113063;-49
2024/02/29 08:20:33;;;;;;;10.65;3.90;;;13.50;74.60;;;;;;4988946;28;113259;-49
2024/02/29 08:22:59;;;;;;;18.58;4.60;;;13.60;74.50;;;;;;5005410;28;113121;-51
2024/02/29 08:25:26;;;;;;;16.27;4.07;;;13.70;74.60;;;;;;4988643;28;112640;-49
2024/02/29 08:27:52;;;;;;;14.57;5.05;;;13.80;74.50;;;;;;4987416;28;112724;-49
2024/02/29 08:30:18;;;;;;;19.80;4.10;;;13.90;74.50;;;;;;4985536;28;113399;-53
2024/02/29 08:32:44;;;;;;;17.10;4.20;;;14.10;74.60;;;;;;4985167;28;114218;-50
2024/02/29 08:35:10;;;;;;;17.27;5.13;;;14.20;74.00;;;;;;4986146;28;112821;-50
2024/02/29 08:37:36;;;;;;;18.63;4.30;;;14.20;73.30;;;;;;4989644;28;112801;-49
2024/02/29 08:40:04;;;;;;;19.08;4.35;;;14.30;72.30;;;;;;4992379;28;114656;-49
2024/02/29 08:42:30;;;;;;;14.63;3.75;;;14.30;72.30;;;;;;4984965;28;113935;-50
2024/02/29 08:44:57;;;;;;;12.20;3.75;;;14.30;71.20;;;;;;4993286;28;113080;-52
2024/02/29 08:47:22;;;;;;;14.32;4.03;;;14.40;71.80;;;;;;4993581;28;112900;-49
2024/02/29 08:49:48;;;;;;;14.70;3.88;;;14.40;71.60;;;;;;4989375;28;113197;-49
2024/02/29 08:52:14;;;;;;;18.25;3.65;;;14.60;71.20;;;;;;4994625;28;113039;-52
2024/02/29 08:54:39;;;;;;;24.40;4.85;;;14.80;70.80;;;;;;4995067;28;112696;-48
2024/02/29 08:57:07;;;;;;;17.33;4.50;;;15.00;69.90;;;;;;4993638;28;112839;-48
2024/02/29 08:59:32;;;;;;;14.93;3.90;;;15.00;68.80;;;;;;4993908;28;114584;-49
2024/02/29 09:01:58;;;;;;;19.45;4.63;;;15.00;68.00;;;;;;4988767;28;113226;-48
2024/02/29 09:04:25;;;;;;;12.45;3.72;;;15.30;69.10;;;;;;4993251;28;112616;-48
2024/02/29 09:06:50;;;;;;;20.02;4.28;;;15.40;68.40;;;;;;4993502;28;112675;-48
2024/02/29 09:09:16;;;;;;;14.20;4.07;;;15.50;69.00;;;;;;4988476;28;113303;-48
2024/02/29 09:11:43;;;;;;;21.42;4.45;;;15.40;68.50;;;;;;4988153;28;115607;-49
2024/02/29 09:14:08;;;;;;;18.42;4.38;;;15.70;68.60;;;;;;4993580;28;113547;-48
2024/02/29 09:16:35;;;;;;;15.80;4.47;;;15.60;67.00;;;;;;4994719;28;112840;-49
2024/02/29 09:19:01;;;;;;;19.90;4.70;;;15.70;67.20;;;;;;5000913;28;113262;-49
2024/02/29 09:21:27;;;;;;;19.70;4.50;;;15.80;67.70;;;;;;5000074;28;113224;-49
2024/02/29 09:23:53;;;;;;;20.55;5.38;;;15.80;67.20;;;;;;4994051;28;113001;-49
2024/02/29 09:26:19;;;;;;;20.67;5.30;;;15.90;67.10;;;;;;4999023;28;113031;-49
2024/02/29 09:28:45;;;;;;;20.10;4.65;;;16.20;66.60;;;;;;4988136;28;113626;-50
2024/02/29 09:31:14;;;;;;;16.05;4.35;;;16.30;65.60;;;;;;4986752;28;114306;-49
2024/02/29 09:33:40;;;;;;;19.27;5.10;;;16.70;64.90;;;;;;4988799;28;112974;-49
2024/02/29 09:36:11;;;;;;;15.38;4.47;;;17.00;64.20;;;;;;4989279;28;113732;-50
2024/02/29 09:38:37;;;;;;;21.27;4.93;;;17.00;63.50;;;;;;4980751;28;113673;-49
2024/02/29 09:41:04;;;;;;;13.90;4.50;;;17.10;62.20;;;;;;4987915;28;113819;-49
2024/02/29 09:43:33;;;;;;;17.80;4.93;;;17.10;62.20;;;;;;4989389;28;112791;-51
2024/02/29 09:46:06;;;;;;;19.05;5.05;;;17.30;62.40;;;;;;4996831;28;114010;-51
2024/02/29 09:48:32;;;;;;;15.73;4.90;;;17.30;61.40;;;;;;4987043;28;114326;-53
2024/02/29 09:51:02;;;;;;;16.08;4.88;;;17.20;62.30;;;;;;4999061;28;114732;-49
2024/02/29 09:53:28;;;;;;;17.75;5.70;;;17.50;62.30;;;;;;4987874;28;113007;-50
2024/02/29 09:55:56;;;;;;;17.92;5.15;;;17.60;61.90;;;;;;4994219;28;113026;-52
2024/02/29 09:58:23;;;;;;;20.38;5.35;;;17.50;62.20;;;;;;4993344;28;113331;-50
2024/02/29 10:00:49;;;;;;;18.30;5.65;;;17.90;61.70;;;;;;4987089;28;113762;-50
2024/02/29 10:03:17;;;;;;;18.80;5.28;;;18.40;60.30;;;;;;4996988;28;112653;-50
2024/02/29 10:05:46;;;;;;;18.02;5.15;;;18.50;59.00;;;;;;4991882;28;113332;-50
2024/02/29 10:08:12;;;;;;;22.40;5.00;;;18.10;59.40;;;;;;4989471;28;114669;-52
2024/02/29 10:10:38;;;;;;;20.27;4.97;;;18.00;59.50;;;;;;4993406;28;114034;-49
2024/02/29 10:13:06;;;;;;;23.05;6.47;;;18.20;59.60;;;;;;5000796;28;112782;-49
2024/02/29 10:15:32;;;;;;;17.25;4.97;;;18.00;58.50;;;;;;5003999;28;112755;-50
2024/02/29 10:18:01;;;;;;;18.98;5.05;;;18.20;59.90;;;;;;4993229;28;113147;-50
2024/02/29 10:20:27;;;;;;;17.55;5.10;;;18.70;58.50;;;;;;5003570;28;113264;-50
2024/02/29 10:22:53;;;;;;;18.83;5.07;;;19.20;55.90;;;;;;5004799;28;112535;-49
2024/02/29 10:25:21;;;;;;;19.50;5.25;;;19.60;55.90;;;;;;5007339;28;112721;-49
2024/02/29 10:27:47;;;;;;;14.35;5.03;;;20.40;53.90;;;;;;4988269;28;113234;-50
2024/02/29 10:30:15;;;;;;;14.50;5.25;;;21.20;51.50;;;;;;4987360;28;114041;-50
2024/02/29 10:32:45;;;;;;;14.52;5.57;;;21.10;52.00;;;;;;4989248;28;113217;-50
2024/02/29 10:35:15;;;;;;;16.70;5.00;;;21.50;50.80;;;;;;4987559;28;114201;-50
2024/02/29 10:37:41;;;;;;;16.75;4.97;;;21.30;50.30;;;;;;4985981;28;115166;-50
2024/02/29 10:40:09;;;;;;;16.33;4.95;;;20.40;51.80;;;;;;4995573;28;112987;-51
2024/02/29 10:42:39;;;;;;;18.38;5.95;;;19.90;52.80;;;;;;4995673;28;112873;-50
2024/02/29 10:45:14;;;;;;;17.15;5.35;;;19.90;53.90;;;;;;4995827;28;112973;-49
2024/02/29 10:47:52;;;;;;;15.52;5.03;;;19.40;54.30;;;;;;4990260;28;113288;-50
2024/02/29 10:50:24;;;;;;;13.82;4.45;;;18.80;55.70;;;;;;4986465;28;112856;-50
2024/02/29 10:53:14;;;;;;;13.32;5.40;;;18.70;56.60;;;;;;4987768;28;112786;-50
2024/02/29 10:55:51;;;;;;;18.67;5.30;;;18.90;56.80;;;;;;4982373;28;113605;-49
2024/02/29 10:58:25;;;;;;;17.63;5.88;;;19.10;55.90;;;;;;4986261;28;113271;-50
2024/02/29 11:00:52;;;;;;;14.95;5.40;;;19.10;56.00;;;;;;4991687;28;112931;-50
2024/02/29 11:03:18;;;;;;;18.35;5.57;;;18.70;57.40;;;;;;4998642;28;112937;-50
2024/02/29 11:05:46;;;;;;;15.15;5.10;;;18.50;57.60;;;;;;5007146;28;112709;-50
2024/02/29 11:08:12;;;;;;;14.13;5.15;;;18.50;57.80;;;;;;4988539;28;113945;-50
2024/02/29 11:10:38;;;;;;;20.73;5.43;;;18.20;59.10;;;;;;4985993;28;113849;-49
2024/02/29 11:13:04;;;;;;;20.08;5.93;;;18.10;59.60;;;;;;4991431;28;112654;-50
2024/02/29 11:15:31;;;;;;;14.90;6.90;;;17.90;59.70;;;;;;4987671;28;113223;-49
2024/02/29 11:18:00;;;;;;;18.73;6.22;;;17.90;59.60;;;;;;4987444;28;114405;-49
2024/02/29 11:20:27;;;;;;;24.80;6.28;;;17.90;60.10;;;;;;4983991;28;114207;-49
2024/02/29 11:23:05;;;;;;;16.13;5.75;;;17.80;59.60;;;;;;4985195;28;113010;-52
2024/02/29 11:25:31;;;;;;;17.40;5.72;;;17.70;60.30;;;;;;4997001;28;113099;-53
2024/02/29 11:28:03;;;;;;;21.02;6.13;;;17.40;60.80;;;;;;4986340;28;113646;-52
2024/02/29 11:30:30;;;;;;;;;;;17.40;60.70;;;;;;4985438;28;114371;-49
2024/02/29 11:33:07;;;;;;;20.13;5.97;;;17.50;59.50;;;;;;4988531;28;112865;-49
2024/02/29 11:35:33;;;;;;;16.27;5.30;;;17.40;59.00;;;;;;4987161;28;112877;-50
2024/02/29 11:38:01;;;;;;;17.48;6.07;;;17.60;59.60;;;;;;5002662;28;113209;-50
2024/02/29 11:40:28;;;;;;;18.08;6.32;;;17.60;58.90;;;;;;4992779;28;113832;-49
2024/02/29 11:43:01;;;;;;;17.55;5.45;;;17.80;58.80;;;;;;4985594;28;112804;-50
2024/02/29 11:45:27;;;;;;;20.25;5.57;;;17.70;58.80;;;;;;4987215;28;112945;-51
2024/02/29 11:47:53;;;;;;;16.55;5.95;;;18.00;58.70;;;;;;4986186;28;113162;-58
2024/02/29 11:50:19;;;;;;;14.73;5.40;;;18.30;57.80;;;;;;4985579;28;112809;-49
2024/02/29 11:52:45;;;;;;;15.30;5.20;;;18.40;57.30;;;;;;4989025;28;114495;-49
2024/02/29 11:55:11;;;;;;;13.82;5.25;;;18.20;57.20;;;;;;4987227;28;113052;-49
2024/02/29 11:57:37;;;;;;;19.02;5.88;;;18.30;57.90;;;;;;4985755;28;113252;-49
2024/02/29 12:00:06;;;;;;;16.55;4.93;;;18.70;57.50;;;;;;4994896;28;113345;-50
2024/02/29 12:02:31;;;;;;;17.80;6.32;;;18.90;56.40;;;;;;4986630;28;112917;-49
2024/02/29 12:04:58;;;;;;;17.63;5.45;;;18.80;57.30;;;;;;4986629;28;112665;-50
2024/02/29 12:07:25;;;;;;;17.25;5.60;;;18.80;57.30;;;;;;5000311;28;114427;-51
2024/02/29 12:09:51;;;;;;;20.48;6.07;;;18.60;56.50;;;;;;4998913;28;112888;-50
2024/02/29 12:12:18;;;;;;;19.55;5.82;;;18.10;57.70;;;;;;4983955;28;112748;-49
2024/02/29 12:14:44;;;;;;;19.48;6.40;;;17.90;59.00;;;;;;4985645;28;112912;-49
2024/02/29 12:17:10;;;;;;;19.30;6.07;;;17.90;59.40;;;;;;4984432;28;114468;-54
2024/02/29 12:19:35;;;;;;;20.17;5.72;;;17.80;59.70;;;;;;4994434;28;112754;-53
2024/02/29 12:22:02;;;;;;;13.25;5.63;;;17.70;60.20;;;;;;5005567;28;112873;-49
2024/02/29 12:24:30;;;;;;;20.38;5.85;;;17.70;59.90;;;;;;5006025;28;112834;-49